Abbott Park, Illinois
Current Conditions -  °F | °C
As of 7:42 AM on Sunday 23 Nov 2014 (Local Time) from KUGN Reporting Station
Overcast Overcast  
Wind Chill:   Ceiling: 5000
Heat Index:   Visibility: 10mi
Dew Point:   Wind: 14mph
Humidity: 77%   Direction: 190°S
Pressure: 29.74"   Gusts: NA
Location:  42.3271°N, 87.865°W
Report Text: KUGN 231342Z 19012KT 10SM SCT026 SCT036 OVC050 09/06 A2974 RMK AO2 T00940056
Loading
Personal Weather Stations






























Interactive Weather Map New forecast layout! Learn more

10-Day Weather Forecast

Advertisements
Track Severe Weather on mobile